sensor_id;sensor_type;location;lat;lon;timestamp;P1;durP1;ratioP1;P2;durP2;ratioP2
61569;SDS011;47462;59.172;17.196;2022-09-09T00:00:53;0.30;;;0.30;;
61569;SDS011;47462;59.172;17.196;2022-09-09T00:03:26;0.50;;;0.40;;
61569;SDS011;47462;59.172;17.196;2022-09-09T00:05:58;1.10;;;0.40;;
61569;SDS011;47462;59.172;17.196;2022-09-09T00:09:29;0.40;;;0.40;;
61569;SDS011;47462;59.172;17.196;2022-09-09T00:11:42;3.15;;;0.47;;
61569;SDS011;47462;59.172;17.196;2022-09-09T00:16:49;1.48;;;0.43;;
61569;SDS011;47462;59.172;17.196;2022-09-09T00:27:41;1.25;;;0.52;;
61569;SDS011;47462;59.172;17.196;2022-09-09T00:30:20;0.63;;;0.40;;
61569;SDS011;47462;59.172;17.196;2022-09-09T00:32:49;0.60;;;0.35;;
61569;SDS011;47462;59.172;17.196;2022-09-09T00:35:22;2.15;;;0.50;;
61569;SDS011;47462;59.172;17.196;2022-09-09T00:37:52;0.75;;;0.20;;
61569;SDS011;47462;59.172;17.196;2022-09-09T00:43:38;0.43;;;0.43;;
61569;SDS011;47462;59.172;17.196;2022-09-09T00:59:56;1.45;;;0.40;;
61569;SDS011;47462;59.172;17.196;2022-09-09T01:02:30;2.30;;;0.47;;
61569;SDS011;47462;59.172;17.196;2022-09-09T01:05:13;0.80;;;0.28;;
61569;SDS011;47462;59.172;17.196;2022-09-09T01:07:51;0.28;;;0.28;;
61569;SDS011;47462;59.172;17.196;2022-09-09T01:10:29;0.90;;;0.22;;
61569;SDS011;47462;59.172;17.196;2022-09-09T01:12:59;1.48;;;0.30;;
61569;SDS011;47462;59.172;17.196;2022-09-09T01:15:30;1.05;;;0.40;;
61569;SDS011;47462;59.172;17.196;2022-09-09T01:18:04;0.80;;;0.40;;
61569;SDS011;47462;59.172;17.196;2022-09-09T01:20:44;0.40;;;0.40;;
61569;SDS011;47462;59.172;17.196;2022-09-09T01:23:38;0.40;;;0.20;;
61569;SDS011;47462;59.172;17.196;2022-09-09T01:29:01;0.50;;;0.40;;
61569;SDS011;47462;59.172;17.196;2022-09-09T01:31:27;1.92;;;0.40;;
61569;SDS011;47462;59.172;17.196;2022-09-09T01:33:57;0.52;;;0.30;;
61569;SDS011;47462;59.172;17.196;2022-09-09T01:36:28;0.67;;;0.43;;
61569;SDS011;47462;59.172;17.196;2022-09-09T01:39:03;0.85;;;0.22;;
61569;SDS011;47462;59.172;17.196;2022-09-09T01:41:28;0.40;;;0.30;;
61569;SDS011;47462;59.172;17.196;2022-09-09T01:43:54;0.47;;;0.20;;
61569;SDS011;47462;59.172;17.196;2022-09-09T01:48:47;0.43;;;0.30;;
61569;SDS011;47462;59.172;17.196;2022-09-09T01:51:13;1.02;;;0.47;;
61569;SDS011;47462;59.172;17.196;2022-09-09T01:53:39;1.13;;;0.20;;
61569;SDS011;47462;59.172;17.196;2022-09-09T01:59:03;0.60;;;0.20;;
61569;SDS011;47462;59.172;17.196;2022-09-09T02:07:06;0.40;;;0.22;;
61569;SDS011;47462;59.172;17.196;2022-09-09T02:09:37;0.50;;;0.38;;
61569;SDS011;47462;59.172;17.196;2022-09-09T02:12:08;0.65;;;0.20;;
61569;SDS011;47462;59.172;17.196;2022-09-09T02:14:42;1.40;;;0.30;;
61569;SDS011;47462;59.172;17.196;2022-09-09T02:17:15;0.30;;;0.30;;
61569;SDS011;47462;59.172;17.196;2022-09-09T02:19:48;0.60;;;0.30;;
61569;SDS011;47462;59.172;17.196;2022-09-09T02:22:17;0.38;;;0.20;;
61569;SDS011;47462;59.172;17.196;2022-09-09T02:24:47;0.38;;;0.30;;
61569;SDS011;47462;59.172;17.196;2022-09-09T02:27:15;0.52;;;0.52;;
61569;SDS011;47462;59.172;17.196;2022-09-09T02:29:43;0.35;;;0.25;;
61569;SDS011;47462;59.172;17.196;2022-09-09T02:32:14;0.57;;;0.20;;
61569;SDS011;47462;59.172;17.196;2022-09-09T02:34:46;0.10;;;0.10;;
61569;SDS011;47462;59.172;17.196;2022-09-09T02:37:15;0.50;;;0.20;;
61569;SDS011;47462;59.172;17.196;2022-09-09T02:39:44;3.00;;;0.30;;
61569;SDS011;47462;59.172;17.196;2022-09-09T02:42:09;2.30;;;0.20;;
61569;SDS011;47462;59.172;17.196;2022-09-09T02:44:35;0.73;;;0.28;;
61569;SDS011;47462;59.172;17.196;2022-09-09T02:51:59;0.63;;;0.20;;
61569;SDS011;47462;59.172;17.196;2022-09-09T02:54:28;0.73;;;0.20;;
61569;SDS011;47462;59.172;17.196;2022-09-09T02:57:03;2.05;;;0.30;;
61569;SDS011;47462;59.172;17.196;2022-09-09T02:59:39;0.28;;;0.20;;
61569;SDS011;47462;59.172;17.196;2022-09-09T03:02:06;0.68;;;0.28;;
61569;SDS011;47462;59.172;17.196;2022-09-09T03:04:32;1.40;;;0.40;;
61569;SDS011;47462;59.172;17.196;2022-09-09T03:06:58;0.28;;;0.25;;
61569;SDS011;47462;59.172;17.196;2022-09-09T03:09:24;0.35;;;0.35;;
61569;SDS011;47462;59.172;17.196;2022-09-09T03:11:51;0.38;;;0.20;;
61569;SDS011;47462;59.172;17.196;2022-09-09T03:14:17;0.13;;;0.13;;
61569;SDS011;47462;59.172;17.196;2022-09-09T03:16:46;0.50;;;0.20;;
61569;SDS011;47462;59.172;17.196;2022-09-09T03:19:12;1.92;;;0.25;;
61569;SDS011;47462;59.172;17.196;2022-09-09T03:21:37;0.52;;;0.22;;
61569;SDS011;47462;59.172;17.196;2022-09-09T03:24:03;1.20;;;0.30;;
61569;SDS011;47462;59.172;17.196;2022-09-09T03:26:29;0.75;;;0.35;;
61569;SDS011;47462;59.172;17.196;2022-09-09T03:28:55;1.95;;;0.35;;
61569;SDS011;47462;59.172;17.196;2022-09-09T03:31:21;2.88;;;0.47;;
61569;SDS011;47462;59.172;17.196;2022-09-09T03:33:46;1.05;;;0.38;;
61569;SDS011;47462;59.172;17.196;2022-09-09T03:36:12;0.35;;;0.30;;
61569;SDS011;47462;59.172;17.196;2022-09-09T03:38:38;0.30;;;0.30;;
61569;SDS011;47462;59.172;17.196;2022-09-09T03:41:04;0.38;;;0.20;;
61569;SDS011;47462;59.172;17.196;2022-09-09T03:43:32;0.17;;;0.17;;
61569;SDS011;47462;59.172;17.196;2022-09-09T03:45:58;2.58;;;0.30;;
61569;SDS011;47462;59.172;17.196;2022-09-09T03:48:24;1.17;;;0.38;;
61569;SDS011;47462;59.172;17.196;2022-09-09T03:50:51;0.40;;;0.40;;
61569;SDS011;47462;59.172;17.196;2022-09-09T03:53:19;0.95;;;0.40;;
61569;SDS011;47462;59.172;17.196;2022-09-09T03:55:46;1.10;;;0.43;;
61569;SDS011;47462;59.172;17.196;2022-09-09T03:58:14;0.20;;;0.20;;
61569;SDS011;47462;59.172;17.196;2022-09-09T04:00:40;0.68;;;0.50;;
61569;SDS011;47462;59.172;17.196;2022-09-09T04:03:09;1.00;;;0.32;;
61569;SDS011;47462;59.172;17.196;2022-09-09T04:05:35;1.42;;;0.30;;
61569;SDS011;47462;59.172;17.196;2022-09-09T04:08:05;1.15;;;0.30;;
61569;SDS011;47462;59.172;17.196;2022-09-09T04:10:31;0.70;;;0.40;;
61569;SDS011;47462;59.172;17.196;2022-09-09T04:12:56;0.65;;;0.20;;
61569;SDS011;47462;59.172;17.196;2022-09-09T04:15:22;2.38;;;0.40;;
61569;SDS011;47462;59.172;17.196;2022-09-09T04:17:47;2.35;;;0.20;;
61569;SDS011;47462;59.172;17.196;2022-09-09T04:20:13;1.13;;;0.67;;
61569;SDS011;47462;59.172;17.196;2022-09-09T04:22:38;3.33;;;0.38;;
61569;SDS011;47462;59.172;17.196;2022-09-09T04:25:04;2.93;;;0.40;;
61569;SDS011;47462;59.172;17.196;2022-09-09T04:27:31;1.38;;;0.40;;
61569;SDS011;47462;59.172;17.196;2022-09-09T04:29:56;1.13;;;0.55;;
61569;SDS011;47462;59.172;17.196;2022-09-09T04:32:22;3.22;;;0.40;;
61569;SDS011;47462;59.172;17.196;2022-09-09T04:34:48;1.60;;;0.50;;
61569;SDS011;47462;59.172;17.196;2022-09-09T04:37:14;0.55;;;0.40;;
61569;SDS011;47462;59.172;17.196;2022-09-09T04:39:39;2.28;;;0.40;;
61569;SDS011;47462;59.172;17.196;2022-09-09T04:42:05;1.07;;;0.40;;
61569;SDS011;47462;59.172;17.196;2022-09-09T04:44:30;1.33;;;0.35;;
61569;SDS011;47462;59.172;17.196;2022-09-09T04:46:55;2.90;;;0.50;;
61569;SDS011;47462;59.172;17.196;2022-09-09T04:49:21;2.80;;;0.73;;
61569;SDS011;47462;59.172;17.196;2022-09-09T04:51:48;0.50;;;0.40;;
61569;SDS011;47462;59.172;17.196;2022-09-09T04:54:14;0.57;;;0.30;;
61569;SDS011;47462;59.172;17.196;2022-09-09T04:56:39;1.55;;;0.35;;
61569;SDS011;47462;59.172;17.196;2022-09-09T04:59:07;3.50;;;0.20;;
61569;SDS011;47462;59.172;17.196;2022-09-09T05:01:32;1.98;;;0.30;;
61569;SDS011;47462;59.172;17.196;2022-09-09T05:03:59;0.73;;;0.35;;
61569;SDS011;47462;59.172;17.196;2022-09-09T05:06:24;0.90;;;0.40;;
61569;SDS011;47462;59.172;17.196;2022-09-09T05:08:49;6.22;;;0.45;;
61569;SDS011;47462;59.172;17.196;2022-09-09T05:11:22;0.65;;;0.32;;
61569;SDS011;47462;59.172;17.196;2022-09-09T05:13:49;2.50;;;0.40;;
61569;SDS011;47462;59.172;17.196;2022-09-09T05:18:41;0.40;;;0.30;;
61569;SDS011;47462;59.172;17.196;2022-09-09T05:21:08;0.55;;;0.30;;
61569;SDS011;47462;59.172;17.196;2022-09-09T05:23:34;0.95;;;0.35;;
61569;SDS011;47462;59.172;17.196;2022-09-09T05:26:00;0.35;;;0.35;;
61569;SDS011;47462;59.172;17.196;2022-09-09T05:28:28;1.55;;;0.40;;
61569;SDS011;47462;59.172;17.196;2022-09-09T05:33:28;1.55;;;0.45;;
61569;SDS011;47462;59.172;17.196;2022-09-09T05:35:55;1.40;;;0.30;;
61569;SDS011;47462;59.172;17.196;2022-09-09T05:38:21;2.97;;;0.60;;
61569;SDS011;47462;59.172;17.196;2022-09-09T05:40:49;0.95;;;0.50;;
61569;SDS011;47462;59.172;17.196;2022-09-09T05:43:15;1.10;;;0.40;;
61569;SDS011;47462;59.172;17.196;2022-09-09T05:45:40;0.88;;;0.40;;
61569;SDS011;47462;59.172;17.196;2022-09-09T05:48:06;0.30;;;0.28;;
61569;SDS011;47462;59.172;17.196;2022-09-09T05:50:32;0.52;;;0.30;;
61569;SDS011;47462;59.172;17.196;2022-09-09T05:52:58;1.35;;;0.50;;
61569;SDS011;47462;59.172;17.196;2022-09-09T05:55:24;1.45;;;0.30;;
61569;SDS011;47462;59.172;17.196;2022-09-09T05:57:50;1.38;;;0.43;;
61569;SDS011;47462;59.172;17.196;2022-09-09T06:00:16;1.30;;;0.70;;
61569;SDS011;47462;59.172;17.196;2022-09-09T06:02:42;1.08;;;0.30;;
61569;SDS011;47462;59.172;17.196;2022-09-09T06:05:08;0.93;;;0.20;;
61569;SDS011;47462;59.172;17.196;2022-09-09T06:07:35;0.43;;;0.30;;
61569;SDS011;47462;59.172;17.196;2022-09-09T06:10:01;0.98;;;0.50;;
61569;SDS011;47462;59.172;17.196;2022-09-09T06:12:26;0.75;;;0.40;;
61569;SDS011;47462;59.172;17.196;2022-09-09T06:14:52;1.70;;;0.60;;
61569;SDS011;47462;59.172;17.196;2022-09-09T06:17:17;1.30;;;0.63;;
61569;SDS011;47462;59.172;17.196;2022-09-09T06:19:42;1.20;;;0.30;;
61569;SDS011;47462;59.172;17.196;2022-09-09T06:22:08;2.42;;;0.30;;
61569;SDS011;47462;59.172;17.196;2022-09-09T06:24:37;1.38;;;0.40;;
61569;SDS011;47462;59.172;17.196;2022-09-09T06:27:03;1.17;;;0.47;;
61569;SDS011;47462;59.172;17.196;2022-09-09T06:29:30;1.13;;;0.40;;
61569;SDS011;47462;59.172;17.196;2022-09-09T06:31:55;1.23;;;0.53;;
61569;SDS011;47462;59.172;17.196;2022-09-09T06:34:21;0.80;;;0.25;;
61569;SDS011;47462;59.172;17.196;2022-09-09T06:36:46;1.45;;;0.55;;
61569;SDS011;47462;59.172;17.196;2022-09-09T06:39:12;0.70;;;0.20;;
61569;SDS011;47462;59.172;17.196;2022-09-09T06:41:40;3.40;;;0.40;;
61569;SDS011;47462;59.172;17.196;2022-09-09T06:44:07;1.83;;;0.30;;
61569;SDS011;47462;59.172;17.196;2022-09-09T06:46:38;2.25;;;0.40;;
61569;SDS011;47462;59.172;17.196;2022-09-09T06:49:04;0.40;;;0.30;;
61569;SDS011;47462;59.172;17.196;2022-09-09T06:51:30;0.90;;;0.35;;
61569;SDS011;47462;59.172;17.196;2022-09-09T06:53:59;1.50;;;0.30;;
61569;SDS011;47462;59.172;17.196;2022-09-09T06:56:27;1.23;;;0.40;;
61569;SDS011;47462;59.172;17.196;2022-09-09T06:58:54;1.00;;;0.50;;
61569;SDS011;47462;59.172;17.196;2022-09-09T07:01:25;1.40;;;0.22;;
61569;SDS011;47462;59.172;17.196;2022-09-09T07:03:53;0.40;;;0.25;;
61569;SDS011;47462;59.172;17.196;2022-09-09T07:06:25;0.30;;;0.20;;
61569;SDS011;47462;59.172;17.196;2022-09-09T07:08:52;0.52;;;0.50;;
61569;SDS011;47462;59.172;17.196;2022-09-09T07:11:20;2.00;;;0.40;;
61569;SDS011;47462;59.172;17.196;2022-09-09T07:13:47;2.08;;;0.30;;
61569;SDS011;47462;59.172;17.196;2022-09-09T07:16:17;1.58;;;0.30;;
61569;SDS011;47462;59.172;17.196;2022-09-09T07:18:44;1.08;;;0.43;;
61569;SDS011;47462;59.172;17.196;2022-09-09T07:21:10;2.85;;;0.55;;
61569;SDS011;47462;59.172;17.196;2022-09-09T07:23:37;1.35;;;0.40;;
61569;SDS011;47462;59.172;17.196;2022-09-09T07:26:10;4.13;;;0.50;;
61569;SDS011;47462;59.172;17.196;2022-09-09T07:28:38;2.05;;;0.30;;
61569;SDS011;47462;59.172;17.196;2022-09-09T07:31:04;1.42;;;0.50;;
61569;SDS011;47462;59.172;17.196;2022-09-09T07:33:31;2.67;;;0.40;;
61569;SDS011;47462;59.172;17.196;2022-09-09T07:36:05;0.57;;;0.20;;
61569;SDS011;47462;59.172;17.196;2022-09-09T07:38:42;2.28;;;0.40;;
61569;SDS011;47462;59.172;17.196;2022-09-09T07:41:14;1.48;;;0.40;;
61569;SDS011;47462;59.172;17.196;2022-09-09T07:43:42;1.48;;;0.28;;
61569;SDS011;47462;59.172;17.196;2022-09-09T07:46:10;2.65;;;0.40;;
61569;SDS011;47462;59.172;17.196;2022-09-09T07:48:37;3.78;;;0.50;;
61569;SDS011;47462;59.172;17.196;2022-09-09T07:53:33;1.02;;;0.68;;
61569;SDS011;47462;59.172;17.196;2022-09-09T07:56:07;0.93;;;0.30;;
61569;SDS011;47462;59.172;17.196;2022-09-09T07:58:35;1.48;;;0.50;;
61569;SDS011;47462;59.172;17.196;2022-09-09T08:01:08;1.55;;;0.25;;
61569;SDS011;47462;59.172;17.196;2022-09-09T08:03:35;4.75;;;0.40;;
61569;SDS011;47462;59.172;17.196;2022-09-09T08:06:02;2.42;;;0.45;;
61569;SDS011;47462;59.172;17.196;2022-09-09T08:08:28;1.58;;;0.30;;
61569;SDS011;47462;59.172;17.196;2022-09-09T08:13:25;3.15;;;0.50;;
61569;SDS011;47462;59.172;17.196;2022-09-09T08:15:52;1.05;;;0.30;;
61569;SDS011;47462;59.172;17.196;2022-09-09T08:18:17;1.80;;;0.40;;
61569;SDS011;47462;59.172;17.196;2022-09-09T08:23:08;2.53;;;0.30;;
61569;SDS011;47462;59.172;17.196;2022-09-09T08:27:59;1.27;;;0.30;;
61569;SDS011;47462;59.172;17.196;2022-09-09T08:30:25;0.73;;;0.20;;
61569;SDS011;47462;59.172;17.196;2022-09-09T08:32:51;0.77;;;0.40;;
61569;SDS011;47462;59.172;17.196;2022-09-09T08:35:17;0.85;;;0.30;;
61569;SDS011;47462;59.172;17.196;2022-09-09T08:40:22;1.25;;;0.30;;
61569;SDS011;47462;59.172;17.196;2022-09-09T08:42:54;1.53;;;0.40;;
61569;SDS011;47462;59.172;17.196;2022-09-09T08:48:56;2.42;;;0.28;;
61569;SDS011;47462;59.172;17.196;2022-09-09T08:51:06;5.18;;;0.50;;
61569;SDS011;47462;59.172;17.196;2022-09-09T08:53:37;1.65;;;0.35;;
61569;SDS011;47462;59.172;17.196;2022-09-09T08:56:09;0.55;;;0.40;;
61569;SDS011;47462;59.172;17.196;2022-09-09T08:58:45;0.68;;;0.40;;
61569;SDS011;47462;59.172;17.196;2022-09-09T09:04:19;2.30;;;0.50;;
61569;SDS011;47462;59.172;17.196;2022-09-09T09:06:50;0.60;;;0.30;;
61569;SDS011;47462;59.172;17.196;2022-09-09T09:09:31;1.02;;;0.30;;
61569;SDS011;47462;59.172;17.196;2022-09-09T09:12:20;2.72;;;0.45;;
61569;SDS011;47462;59.172;17.196;2022-09-09T09:14:48;2.35;;;0.25;;
61569;SDS011;47462;59.172;17.196;2022-09-09T09:17:21;1.80;;;0.50;;
61569;SDS011;47462;59.172;17.196;2022-09-09T09:19:50;0.38;;;0.10;;
61569;SDS011;47462;59.172;17.196;2022-09-09T09:22:49;2.05;;;0.40;;
61569;SDS011;47462;59.172;17.196;2022-09-09T09:25:21;0.65;;;0.25;;
61569;SDS011;47462;59.172;17.196;2022-09-09T09:30:26;1.85;;;0.30;;
61569;SDS011;47462;59.172;17.196;2022-09-09T09:33:06;1.05;;;0.38;;
61569;SDS011;47462;59.172;17.196;2022-09-09T09:35:55;2.28;;;0.52;;
61569;SDS011;47462;59.172;17.196;2022-09-09T09:40:57;0.47;;;0.20;;
61569;SDS011;47462;59.172;17.196;2022-09-09T09:43:25;2.38;;;0.40;;
61569;SDS011;47462;59.172;17.196;2022-09-09T09:46:00;2.25;;;0.70;;
61569;SDS011;47462;59.172;17.196;2022-09-09T09:48:28;1.17;;;0.40;;
61569;SDS011;47462;59.172;17.196;2022-09-09T09:53:30;4.53;;;0.40;;
61569;SDS011;47462;59.172;17.196;2022-09-09T09:56:01;2.28;;;0.30;;
61569;SDS011;47462;59.172;17.196;2022-09-09T09:58:32;0.90;;;0.50;;
61569;SDS011;47462;59.172;17.196;2022-09-09T10:01:20;0.52;;;0.30;;
61569;SDS011;47462;59.172;17.196;2022-09-09T10:03:53;1.00;;;0.50;;
61569;SDS011;47462;59.172;17.196;2022-09-09T10:06:35;0.60;;;0.40;;
61569;SDS011;47462;59.172;17.196;2022-09-09T10:09:03;0.77;;;0.28;;
61569;SDS011;47462;59.172;17.196;2022-09-09T10:11:49;2.35;;;0.20;;
61569;SDS011;47462;59.172;17.196;2022-09-09T10:20:34;0.88;;;0.50;;
61569;SDS011;47462;59.172;17.196;2022-09-09T10:28:38;0.52;;;0.50;;
61569;SDS011;47462;59.172;17.196;2022-09-09T10:31:17;0.53;;;0.40;;
61569;SDS011;47462;59.172;17.196;2022-09-09T10:36:20;0.85;;;0.20;;
61569;SDS011;47462;59.172;17.196;2022-09-09T10:44:23;0.20;;;0.13;;
61569;SDS011;47462;59.172;17.196;2022-09-09T10:53:24;1.65;;;0.40;;
61569;SDS011;47462;59.172;17.196;2022-09-09T10:55:59;0.68;;;0.25;;
61569;SDS011;47462;59.172;17.196;2022-09-09T10:58:42;2.63;;;0.45;;
61569;SDS011;47462;59.172;17.196;2022-09-09T11:03:54;0.30;;;0.20;;
61569;SDS011;47462;59.172;17.196;2022-09-09T11:06:28;1.15;;;0.28;;
61569;SDS011;47462;59.172;17.196;2022-09-09T11:09:00;2.13;;;0.63;;
61569;SDS011;47462;59.172;17.196;2022-09-09T11:11:39;0.75;;;0.40;;
61569;SDS011;47462;59.172;17.196;2022-09-09T11:14:15;1.35;;;0.45;;
61569;SDS011;47462;59.172;17.196;2022-09-09T11:16:50;3.13;;;0.30;;
61569;SDS011;47462;59.172;17.196;2022-09-09T11:21:59;1.63;;;0.50;;
61569;SDS011;47462;59.172;17.196;2022-09-09T11:24:36;2.50;;;0.32;;
61569;SDS011;47462;59.172;17.196;2022-09-09T11:27:13;2.85;;;0.47;;
61569;SDS011;47462;59.172;17.196;2022-09-09T11:40:57;1.13;;;0.50;;
61569;SDS011;47462;59.172;17.196;2022-09-09T11:43:29;0.88;;;0.40;;
61569;SDS011;47462;59.172;17.196;2022-09-09T11:45:59;1.38;;;0.40;;
61569;SDS011;47462;59.172;17.196;2022-09-09T11:48:40;2.47;;;0.65;;
61569;SDS011;47462;59.172;17.196;2022-09-09T11:59:19;3.13;;;0.50;;
61569;SDS011;47462;59.172;17.196;2022-09-09T12:01:50;0.65;;;0.50;;
61569;SDS011;47462;59.172;17.196;2022-09-09T12:06:50;0.60;;;0.45;;
61569;SDS011;47462;59.172;17.196;2022-09-09T12:14:18;0.50;;;0.40;;
61569;SDS011;47462;59.172;17.196;2022-09-09T12:16:45;0.77;;;0.52;;
61569;SDS011;47462;59.172;17.196;2022-09-09T12:27:19;1.33;;;0.50;;
61569;SDS011;47462;59.172;17.196;2022-09-09T12:32:25;1.30;;;0.45;;
61569;SDS011;47462;59.172;17.196;2022-09-09T12:34:54;1.60;;;0.80;;
61569;SDS011;47462;59.172;17.196;2022-09-09T12:42:43;0.85;;;0.60;;
61569;SDS011;47462;59.172;17.196;2022-09-09T12:45:42;0.50;;;0.47;;
61569;SDS011;47462;59.172;17.196;2022-09-09T12:48:06;3.00;;;0.80;;
61569;SDS011;47462;59.172;17.196;2022-09-09T12:50:35;3.25;;;0.65;;
61569;SDS011;47462;59.172;17.196;2022-09-09T12:53:12;2.45;;;0.60;;
61569;SDS011;47462;59.172;17.196;2022-09-09T12:55:56;0.75;;;0.57;;
61569;SDS011;47462;59.172;17.196;2022-09-09T12:58:24;3.88;;;1.02;;
61569;SDS011;47462;59.172;17.196;2022-09-09T13:00:54;1.75;;;0.75;;
61569;SDS011;47462;59.172;17.196;2022-09-09T13:03:24;1.70;;;1.17;;
61569;SDS011;47462;59.172;17.196;2022-09-09T13:05:50;4.85;;;0.68;;
61569;SDS011;47462;59.172;17.196;2022-09-09T13:08:17;1.85;;;0.98;;
61569;SDS011;47462;59.172;17.196;2022-09-09T13:10:47;2.15;;;0.70;;
61569;SDS011;47462;59.172;17.196;2022-09-09T13:13:26;1.92;;;0.70;;
61569;SDS011;47462;59.172;17.196;2022-09-09T13:15:58;2.22;;;0.70;;
61569;SDS011;47462;59.172;17.196;2022-09-09T13:18:29;0.70;;;0.70;;
61569;SDS011;47462;59.172;17.196;2022-09-09T13:20:58;3.53;;;1.13;;
61569;SDS011;47462;59.172;17.196;2022-09-09T13:25:53;1.42;;;0.70;;
61569;SDS011;47462;59.172;17.196;2022-09-09T13:28:24;2.85;;;0.63;;
61569;SDS011;47462;59.172;17.196;2022-09-09T13:30:58;2.55;;;0.77;;
61569;SDS011;47462;59.172;17.196;2022-09-09T13:38:27;2.83;;;1.08;;
61569;SDS011;47462;59.172;17.196;2022-09-09T13:41:00;0.93;;;0.70;;
61569;SDS011;47462;59.172;17.196;2022-09-09T13:43:31;1.50;;;1.00;;
61569;SDS011;47462;59.172;17.196;2022-09-09T13:46:03;5.10;;;0.90;;
61569;SDS011;47462;59.172;17.196;2022-09-09T13:48:30;1.88;;;0.68;;
61569;SDS011;47462;59.172;17.196;2022-09-09T13:53:28;2.40;;;0.57;;
61569;SDS011;47462;59.172;17.196;2022-09-09T13:55:53;3.90;;;0.77;;
61569;SDS011;47462;59.172;17.196;2022-09-09T13:58:19;2.70;;;0.98;;
61569;SDS011;47462;59.172;17.196;2022-09-09T14:00:45;1.00;;;0.80;;
61569;SDS011;47462;59.172;17.196;2022-09-09T14:03:11;1.30;;;0.52;;
61569;SDS011;47462;59.172;17.196;2022-09-09T14:05:37;2.13;;;0.80;;
61569;SDS011;47462;59.172;17.196;2022-09-09T14:08:06;4.85;;;0.70;;
61569;SDS011;47462;59.172;17.196;2022-09-09T14:10:35;5.57;;;1.00;;
61569;SDS011;47462;59.172;17.196;2022-09-09T14:13:02;2.47;;;0.70;;
61569;SDS011;47462;59.172;17.196;2022-09-09T14:15:28;2.40;;;0.80;;
61569;SDS011;47462;59.172;17.196;2022-09-09T14:17:54;3.45;;;0.75;;
61569;SDS011;47462;59.172;17.196;2022-09-09T14:20:20;2.63;;;0.95;;
61569;SDS011;47462;59.172;17.196;2022-09-09T14:22:47;2.15;;;0.80;;
61569;SDS011;47462;59.172;17.196;2022-09-09T14:27:38;3.08;;;1.00;;
61569;SDS011;47462;59.172;17.196;2022-09-09T14:30:05;1.23;;;0.60;;
61569;SDS011;47462;59.172;17.196;2022-09-09T14:32:31;2.13;;;0.70;;
61569;SDS011;47462;59.172;17.196;2022-09-09T14:37:21;1.52;;;1.05;;
61569;SDS011;47462;59.172;17.196;2022-09-09T14:39:47;4.57;;;1.10;;
61569;SDS011;47462;59.172;17.196;2022-09-09T14:42:15;5.10;;;0.80;;
61569;SDS011;47462;59.172;17.196;2022-09-09T14:44:41;2.30;;;0.70;;
61569;SDS011;47462;59.172;17.196;2022-09-09T14:47:06;2.25;;;0.70;;
61569;SDS011;47462;59.172;17.196;2022-09-09T14:49:33;1.40;;;0.60;;
61569;SDS011;47462;59.172;17.196;2022-09-09T14:51:59;1.38;;;0.77;;
61569;SDS011;47462;59.172;17.196;2022-09-09T14:54:25;2.13;;;0.80;;
61569;SDS011;47462;59.172;17.196;2022-09-09T14:56:50;2.78;;;0.77;;
61569;SDS011;47462;59.172;17.196;2022-09-09T14:59:16;1.67;;;0.80;;
61569;SDS011;47462;59.172;17.196;2022-09-09T15:01:41;2.15;;;0.70;;
61569;SDS011;47462;59.172;17.196;2022-09-09T15:04:07;2.45;;;0.98;;
61569;SDS011;47462;59.172;17.196;2022-09-09T15:06:33;1.15;;;0.70;;
61569;SDS011;47462;59.172;17.196;2022-09-09T15:09:01;0.73;;;0.70;;
61569;SDS011;47462;59.172;17.196;2022-09-09T15:11:28;0.80;;;0.55;;
61569;SDS011;47462;59.172;17.196;2022-09-09T15:13:55;1.30;;;0.77;;
61569;SDS011;47462;59.172;17.196;2022-09-09T15:16:23;2.65;;;0.68;;
61569;SDS011;47462;59.172;17.196;2022-09-09T15:18:51;2.58;;;0.80;;
61569;SDS011;47462;59.172;17.196;2022-09-09T15:21:19;2.15;;;0.57;;
61569;SDS011;47462;59.172;17.196;2022-09-09T15:23:46;2.45;;;0.40;;
61569;SDS011;47462;59.172;17.196;2022-09-09T15:26:13;2.90;;;0.63;;
61569;SDS011;47462;59.172;17.196;2022-09-09T15:28:40;3.92;;;0.68;;
61569;SDS011;47462;59.172;17.196;2022-09-09T15:33:35;3.30;;;0.90;;
61569;SDS011;47462;59.172;17.196;2022-09-09T15:36:15;0.55;;;0.52;;
61569;SDS011;47462;59.172;17.196;2022-09-09T15:38:48;1.85;;;0.63;;
61569;SDS011;47462;59.172;17.196;2022-09-09T15:41:14;2.17;;;0.90;;
61569;SDS011;47462;59.172;17.196;2022-09-09T15:43:48;2.67;;;0.68;;
61569;SDS011;47462;59.172;17.196;2022-09-09T15:48:49;1.95;;;0.70;;
61569;SDS011;47462;59.172;17.196;2022-09-09T15:51:15;1.60;;;0.65;;
61569;SDS011;47462;59.172;17.196;2022-09-09T15:56:07;1.20;;;0.60;;
61569;SDS011;47462;59.172;17.196;2022-09-09T16:01:03;2.95;;;0.60;;
61569;SDS011;47462;59.172;17.196;2022-09-09T16:03:29;2.92;;;1.13;;
61569;SDS011;47462;59.172;17.196;2022-09-09T16:05:58;4.00;;;1.13;;
61569;SDS011;47462;59.172;17.196;2022-09-09T16:10:50;0.93;;;0.68;;
61569;SDS011;47462;59.172;17.196;2022-09-09T16:15:41;2.67;;;0.82;;
61569;SDS011;47462;59.172;17.196;2022-09-09T16:18:07;0.88;;;0.65;;
61569;SDS011;47462;59.172;17.196;2022-09-09T16:22:58;1.42;;;0.73;;
61569;SDS011;47462;59.172;17.196;2022-09-09T16:25:23;2.20;;;0.95;;
61569;SDS011;47462;59.172;17.196;2022-09-09T16:30:14;3.38;;;0.85;;
61569;SDS011;47462;59.172;17.196;2022-09-09T16:35:05;3.03;;;0.82;;
61569;SDS011;47462;59.172;17.196;2022-09-09T16:39:58;1.10;;;0.75;;
61569;SDS011;47462;59.172;17.196;2022-09-09T16:42:24;2.13;;;0.82;;
61569;SDS011;47462;59.172;17.196;2022-09-09T16:44:49;2.60;;;0.85;;
61569;SDS011;47462;59.172;17.196;2022-09-09T16:47:15;2.80;;;0.82;;
61569;SDS011;47462;59.172;17.196;2022-09-09T16:52:06;2.90;;;1.08;;
61569;SDS011;47462;59.172;17.196;2022-09-09T16:54:31;1.27;;;0.98;;
61569;SDS011;47462;59.172;17.196;2022-09-09T16:56:57;0.82;;;0.60;;
61569;SDS011;47462;59.172;17.196;2022-09-09T16:59:23;3.17;;;1.35;;
61569;SDS011;47462;59.172;17.196;2022-09-09T17:01:50;1.73;;;0.82;;
61569;SDS011;47462;59.172;17.196;2022-09-09T17:04:17;5.35;;;0.98;;
61569;SDS011;47462;59.172;17.196;2022-09-09T17:06:49;1.08;;;0.63;;
61569;SDS011;47462;59.172;17.196;2022-09-09T17:09:16;3.03;;;0.70;;
61569;SDS011;47462;59.172;17.196;2022-09-09T17:11:42;1.50;;;0.80;;
61569;SDS011;47462;59.172;17.196;2022-09-09T17:14:08;0.90;;;0.70;;
61569;SDS011;47462;59.172;17.196;2022-09-09T17:16:38;3.33;;;0.70;;
61569;SDS011;47462;59.172;17.196;2022-09-09T17:19:04;1.20;;;0.80;;
61569;SDS011;47462;59.172;17.196;2022-09-09T17:21:31;2.45;;;1.00;;
61569;SDS011;47462;59.172;17.196;2022-09-09T17:23:57;1.75;;;0.93;;
61569;SDS011;47462;59.172;17.196;2022-09-09T17:28:51;2.15;;;0.68;;
61569;SDS011;47462;59.172;17.196;2022-09-09T17:31:18;1.10;;;0.70;;
61569;SDS011;47462;59.172;17.196;2022-09-09T17:33:45;2.65;;;0.80;;
61569;SDS011;47462;59.172;17.196;2022-09-09T17:38:40;5.35;;;0.95;;
61569;SDS011;47462;59.172;17.196;2022-09-09T17:43:34;4.93;;;0.88;;
61569;SDS011;47462;59.172;17.196;2022-09-09T17:46:05;1.63;;;1.00;;
61569;SDS011;47462;59.172;17.196;2022-09-09T17:48:44;1.67;;;0.90;;
61569;SDS011;47462;59.172;17.196;2022-09-09T17:53:44;1.83;;;0.90;;
61569;SDS011;47462;59.172;17.196;2022-09-09T17:56:12;2.78;;;0.90;;
61569;SDS011;47462;59.172;17.196;2022-09-09T17:58:39;1.73;;;0.75;;
61569;SDS011;47462;59.172;17.196;2022-09-09T18:01:07;1.48;;;0.90;;
61569;SDS011;47462;59.172;17.196;2022-09-09T18:03:35;4.80;;;1.10;;
61569;SDS011;47462;59.172;17.196;2022-09-09T18:06:05;1.58;;;0.80;;
61569;SDS011;47462;59.172;17.196;2022-09-09T18:08:33;3.40;;;0.93;;